Nearby METAR Reports

 

KELM - Elmira, New York, USA
Distance from station: W 13mi, 20km
Updated: Sun, 17-Dec-2017 1:53pm EST
Clear
Clear
 Wind from ENE
Wind: ENE 6 mph , 9 km/h
Temperature: 28°F , -2°C
Wind Chill: 21°F , -6°C
Dew Point: 19°F , -7°C
Humidity: 69%
Barometer: 30.19 inHg , 1022.4 hPa
Clouds: Clear
Visibility: 10 miles , 16 km
2017/12/17 18:53 KELM 171853Z 07005KT 10SM CLR M02/M07 A3019 RMK AO2 SLP235 T10221072
KITH - Ithaca/Tompkins, New York, USA
Distance from station: NNE 24mi, 39km
Updated: Sun, 17-Dec-2017 1:55pm EST
Partly cloudy
Partly cloudy
 Wind from calm
Wind: Calm
Temperature: 27°F , -3°C
Dew Point: 18°F , -8°C
Humidity: 69%
Barometer: 30.19 inHg , 1022.4 hPa
Clouds: Partly cloudy
Visibility: 10 miles , 16 km
Cloud details: Partly cloudy 1800 ft
Partly cloudy 4500 ft
2017/12/17 18:55 KITH 171855Z 00000KT 10SM SCT018 SCT045 M03/M08 A3019
KBGM - Binghamton, New York, USA
Distance from station: E 35mi, 56km
Updated: Sun, 17-Dec-2017 2:35pm EST
Overcast
Overcast
 Wind from ENE
Wind: ENE 3 mph , 6 km/h
Temperature: 21°F , -6°C
Dew Point: 16°F , -9°C
Humidity: 80%
Barometer: 30.14 inHg , 1020.7 hPa
Clouds: Overcast
Visibility: 10 miles , 16 km
Cloud details: Mostly cloudy 1300 ft
Overcast 4300 ft
2017/12/17 19:35 KBGM 171935Z 06003KT 10SM BKN013 OVC043 M06/M09 A3014 RMK AO2 T10561094
 
KPEO - Penn Yan, New York, USA
Distance from station: NNW 40mi, 64km
Updated: Sun, 17-Dec-2017 1:53pm EST
Overcast
Overcast
 Wind from calm
Wind: Calm
Temperature: 25°F , -4°C
Dew Point: 12°F , -11°C
Humidity: 59%
Barometer: 30.21 inHg , 1023 hPa
Clouds: Overcast
Visibility: 10 miles , 16 km
Cloud details: Overcast 4600 ft
2017/12/17 18:53 KPEO 171853Z AUTO 00000KT 10SM OVC046 M04/M11 A3021 RMK AO2 SLP245 T10441106
KDSV - Dansville, New York, USA
Distance from station: WNW 61mi, 99km
Updated: Sun, 17-Dec-2017 1:54pm EST
Mostly cloudy
Mostly cloudy
 Wind from NW
Wind: NW 5 mph , 7 km/h
Temperature: 23°F , -5°C
Wind Chill: 17°F , -8°C
Dew Point: 16°F , -9°C
Humidity: 74%
Barometer: 30.20 inHg , 1022.7 hPa
Clouds: Mostly cloudy
Visibility: 10 miles , 16 km
Cloud details: Few Clouds 1900 ft
Mostly cloudy 5000 ft
2017/12/17 18:54 KDSV 171854Z AUTO 32004KT 10SM FEW019 BKN050 M05/M09 A3020 RMK AO2 SLP247 T10501089
KIPT - Williamsport, Pennsylvania, USA
Distance from station: SSW 64mi, 102km
Updated: Sun, 17-Dec-2017 1:54pm EST
Overcast
Overcast
 Wind from calm
Wind: Calm
Temperature: 37°F , 3°C
Dew Point: 27°F , -3°C
Humidity: 65%
Barometer: 30.19 inHg , 1022.4 hPa
Clouds: Overcast
Visibility: 10 miles , 16 km
Cloud details: Overcast 20000 ft
2017/12/17 18:54 KIPT 171854Z 00000KT 10SM OVC200 03/M03 A3019 RMK AO2 SLP229 T00281028
 
KELZ - Wellsville, New York, USA
Distance from station: W 68mi, 110km
Updated: Sun, 17-Dec-2017 1:56pm EST
Haze, Clear
Haze, Clear
 Wind from calm
Wind: Calm
Temperature: 30°F , -1°C
Dew Point: 25°F , -4°C
Humidity: 80%
Barometer: 30.11 inHg , 1019.6 hPa
Summary: Haze
Clouds: Clear
Visibility: 6 miles , 10 km
2017/12/17 18:56 KELZ 171856Z AUTO 00000KT 6SM HZ CLR M01/M04 A3011 RMK AO2 SLP224 T10061044 $
KSYR - Syracuse, New York, USA
Distance from station: NNE 72mi, 117km
Updated: Sun, 17-Dec-2017 1:54pm EST
Overcast
Overcast
 Wind from calm
Wind: Calm
Temperature: 21°F , -6°C
Dew Point: 16°F , -9°C
Humidity: 80%
Barometer: 30.25 inHg , 1024.4 hPa
Clouds: Overcast
Visibility: 10 miles , 16 km
Cloud details: Few Clouds 2500 ft
Partly cloudy 14000 ft
Overcast 20000 ft
2017/12/17 18:54 KSYR 171854Z 00000KT 10SM FEW025 SCT140 OVC200 M06/M09 A3025 RMK AO2 SLP248 T10561089 $
KAVP - Avoca/Wilkes B., Pennsylvania, USA
Distance from station: SE 74mi, 120km
Updated: Sun, 17-Dec-2017 1:54pm EST
Clear
Clear
 Wind from NNE
Wind: NNE 3 mph , 6 km/h
Temperature: 32°F , 0°C
Dew Point: 23°F , -5°C
Humidity: 69%
Barometer: 30.18 inHg , 1022 hPa
Clouds: Clear
Visibility: 7 miles , 11 km
2017/12/17 18:54 KAVP 171854Z 02003KT 7SM CLR 00/M05 A3018 RMK AO2 SLP229 T00001050